Latest Weather Observations for Kuitpo

IDS60901

Issued at 2:31 pm CST Saturday 22 July 2017 (issued every 10 minutes, with the page automatically refreshed every 10 minutes)

About weather observations | Map of Adelaide area stations | Latest observations for Adelaide area | Other Formats
Station Details ID: 023887 Name: KUITPO FOREST RESERVE Lat: -35.17 Lon: 138.68 Height: 365.0 m
Data from the previous 72 hours. | See also: Recent months at Kuitpo
Date/Time
CST
Temp
°C
App
Temp
°C
Dew
Point
°C
Rel
Hum
%
Delta-T
°C
Wind Press
QNH
hPa
Press
MSL
hPa
Rain since
9am
mm
Dir  Spd
km/h
Gust
km/h
Spd
kts
Gust
kts
22/02:30pm 14.4 8.9 3.8 49 4.9 NNW 22 41 12 22 1012.6 1012.9 0.0
22/02:00pm 14.9 9.8 4.0 48 5.1 NNW 20 35 11 19 1012.8 1013.1 0.0
22/01:30pm 14.3 8.3 3.5 48 5.0 NW 24 39 13 21 1013.2 1013.5 0.0
22/01:00pm 14.6 8.8 4.3 50 4.9 NW 24 39 13 21 1013.8 1014.0 0.0
22/12:30pm 14.3 8.0 3.7 49 4.9 NW 26 39 14 21 1014.4 1014.7 0.0
22/12:00pm 14.3 9.4 4.3 51 4.7 NNW 19 32 10 17 1014.8 1015.1 0.0
22/11:30am 13.5 8.0 4.1 53 4.4 NNW 22 43 12 23 1015.2 1015.5 0.0
22/11:00am 13.4 8.3 4.3 54 4.2 NNW 20 35 11 19 1015.6 1015.9 0.0
22/10:30am 12.4 6.7 3.1 53 4.2 NNW 22 41 12 22 1015.8 1016.1 0.0
22/10:00am 11.9 5.9 3.4 56 3.8 NNW 24 46 13 25 1015.8 1016.1 0.0
22/09:30am 11.6 5.5 2.9 55 3.9 NNW 24 46 13 25 1015.7 1016.0 0.0
22/09:00am 11.1 4.9 2.4 55 3.8 NNW 24 44 13 24 1015.6 1015.9 0.2
22/08:41am 10.9 3.9 2.2 55 3.8 NNW 28 46 15 25 1015.6 1015.9 0.2
22/08:30am 10.7 4.5 2.0 55 3.8 NNW 24 48 13 26 1015.5 1015.8 0.2
22/08:00am 10.0 3.7 1.6 56 3.6 NNW 24 43 13 23 1015.4 1015.7 0.2
22/07:38am 10.1 3.1 1.7 56 3.6 NNW 28 46 15 25 1015.4 1015.7 0.2
22/07:30am 10.1 3.4 1.7 56 3.6 NNW 26 50 14 27 1015.5 1015.8 0.2
22/07:00am 10.6 3.5 1.4 53 3.9 NW 28 48 15 26 1015.3 1015.6 0.2
22/06:30am 10.7 3.2 1.5 53 3.9 NNW 30 54 16 29 1015.1 1015.4 0.2
22/06:00am 10.8 3.4 1.6 53 4.0 NNW 30 52 16 28 1014.7 1015.0 0.2
22/05:34am 10.8 3.7 1.6 53 4.0 NNW 28 48 15 26 1014.7 1015.0 0.2
22/05:30am 10.9 4.2 1.4 52 4.1 NNW 26 44 14 24 1014.7 1015.0 0.2
22/05:00am 11.1 4.0 1.6 52 4.1 NNW 28 46 15 25 1014.7 1015.0 0.2
22/04:30am 10.7 3.7 2.0 55 3.8 NNW 28 46 15 25 1015.0 1015.3 0.2
22/04:28am 10.8 3.8 2.1 55 3.8 NNW 28 46 15 25 1015.0 1015.3 0.2
22/04:00am 10.5 4.7 2.4 57 3.5 NNW 22 41 12 22 1015.4 1015.7 0.2
22/03:30am 10.8 5.3 2.1 55 3.8 NNW 20 33 11 18 1015.9 1016.2 0.2
22/03:00am 11.0 5.4 1.5 52 4.1 NNW 20 33 11 18 1016.3 1016.6 0.2
22/02:30am 11.2 5.8 1.5 51 4.2 NNW 19 35 10 19 1016.5 1016.8 0.2
22/02:00am 11.9 6.3 1.3 48 4.6 NW 20 41 11 22 1016.6 1016.9 0.2
22/01:30am 11.5 7.3 1.7 51 4.2 NNW 13 26 7 14 1016.4 1016.7 0.2
22/01:00am 12.3 8.0 1.3 47 4.8 NW 13 24 7 13 1016.6 1016.9 0.2
22/12:30am 12.1 8.2 1.4 48 4.6 NNW 11 22 6 12 1016.4 1016.7 0.2
22/12:00am 12.0 7.4 1.6 49 4.5 N 15 26 8 14 1015.8 1016.1 0.2
 
Date/Time
CST
Temp
°C
App
Temp
°C
Dew
Point
°C
Rel
Hum
%
Delta-T
°C
Wind Press
QNH
hPa
Press
MSL
hPa
Rain since
9am
mm
Dir  Spd
km/h
Gust
km/h
Spd
kts
Gust
kts
21/11:30pm 12.4 7.5 1.7 48 4.7 N 17 35 9 19 1015.6 1015.9 0.2
21/11:00pm 12.4 7.5 1.7 48 4.7 N 17 30 9 16 1015.9 1016.2 0.2
21/10:30pm 12.6 7.7 2.2 49 4.6 N 17 32 9 17 1016.2 1016.5 0.2
21/10:00pm 12.0 7.6 2.7 53 4.1 NNE 15 24 8 13 1016.4 1016.7 0.2
21/09:30pm 11.2 7.2 2.8 56 3.7 NE 13 24 7 13 1016.6 1016.9 0.2
21/09:00pm 11.1 7.5 2.9 57 3.6 NNE 11 20 6 11 1017.0 1017.3 0.2
21/08:30pm 11.3 7.6 2.6 55 3.8 NNE 11 20 6 11 1017.2 1017.5 0.2
21/08:00pm 10.8 6.8 3.1 59 3.4 N 13 22 7 12 1017.1 1017.4 0.2
21/07:30pm 10.4 6.6 3.9 64 2.9 NNE 13 20 7 11 1017.1 1017.4 0.2
21/07:00pm 10.3 6.6 4.5 67 2.7 NE 13 24 7 13 1017.1 1017.4 0.2
21/06:30pm 10.9 8.0 4.4 64 3.0 NNE 9 17 5 9 1017.3 1017.6 0.2
21/06:00pm 11.3 7.6 4.5 63 3.1 N 13 20 7 11 1017.3 1017.6 0.2
21/05:30pm 11.6 7.9 4.6 62 3.2 N 13 22 7 12 1017.3 1017.6 0.2
21/05:00pm 12.7 8.7 4.7 58 3.7 NNW 15 24 8 13 1017.1 1017.4 0.2
21/04:30pm 13.4 9.0 4.8 56 4.0 NNW 17 30 9 16 1017.0 1017.3 0.2
21/04:00pm 13.9 9.1 4.5 53 4.4 NNW 19 35 10 19 1017.0 1017.3 0.2
21/03:30pm 14.3 10.0 5.1 54 4.4 NNW 17 28 9 15 1017.0 1017.3 0.2
21/03:00pm 14.6 10.3 5.4 54 4.4 NNW 17 33 9 18 1017.1 1017.4 0.2
21/02:30pm 14.5 10.1 5.0 53 4.5 NNW 17 28 9 15 1017.0 1017.3 0.2
21/02:00pm 14.2 9.3 3.9 50 4.8 NNW 19 30 10 16 1017.1 1017.4 0.2
21/01:30pm 14.1 9.2 4.1 51 4.7 NW 19 32 10 17 1017.4 1017.7 0.2
21/01:00pm 13.7 8.2 4.0 52 4.5 NNW 22 35 12 19 1017.6 1017.9 0.0
21/12:30pm 13.5 9.4 4.4 54 4.2 NNW 15 24 8 13 1018.2 1018.5 0.0
21/12:00pm 13.1 7.9 3.7 53 4.3 NNW 20 35 11 19 1018.6 1019.0 0.0
21/11:30am 13.6 9.5 4.5 54 4.3 N 15 26 8 14 1019.3 1019.6 0.0
21/11:00am 13.0 9.3 4.4 56 4.0 NNW 13 30 7 16 1019.6 1019.9 0.0
21/10:30am 12.6 8.9 4.6 58 3.7 N 13 30 7 16 1019.8 1020.1 0.0
21/10:00am 11.7 8.8 4.9 63 3.2 NNE 9 15 5 8 1019.8 1020.1 0.0
21/09:30am 10.0 7.0 4.2 67 2.6 NNE 9 17 5 9 1019.8 1020.1 0.0
21/09:00am 8.2 4.7 3.5 72 2.1 NNE 11 17 6 9 1019.7 1020.0 0.0
21/08:30am 6.7 3.0 2.6 75 1.7 NNE 11 15 6 8 1019.6 1019.9 0.0
21/08:00am 4.8 1.1 2.5 85 1.0 NNE 11 15 6 8 1019.5 1019.8 0.0
21/07:30am 4.0 0.6 2.0 87 0.8 NNE 9 17 5 9 1019.2 1019.5 0.0
21/07:00am 4.3 0.9 1.8 84 1.0 NNE 9 15 5 8 1019.2 1019.5 0.0
21/06:30am 4.4 0.3 2.3 86 0.9 NNE 13 20 7 11 1018.8 1019.2 0.0
21/06:00am 4.4 0.3 2.4 87 0.8 NNE 13 20 7 11 1018.7 1019.1 0.0
21/05:30am 3.9 0.2 2.1 88 0.7 NE 11 17 6 9 1018.6 1019.0 0.0
21/05:00am 3.7 0.0 2.2 90 0.6 NNE 11 17 6 9 1018.6 1019.0 0.0
21/04:30am 3.9 0.2 2.4 90 0.6 NE 11 17 6 9 1018.7 1019.1 0.0
21/04:00am 3.6 -0.9 2.3 91 0.5 NE 15 20 8 11 1018.4 1018.8 0.0
21/03:30am 3.6 -0.9 2.1 90 0.6 NE 15 20 8 11 1018.2 1018.5 0.0
21/03:00am 3.8 -1.0 2.5 91 0.5 NE 17 24 9 13 1018.2 1018.5 0.0
21/02:30am 4.0 -0.4 2.7 91 0.5 NE 15 24 8 13 1018.4 1018.8 0.0
21/02:00am 4.1 -0.7 2.6 90 0.6 NE 17 24 9 13 1018.5 1018.9 0.0
21/01:30am 4.7 0.0 3.0 89 0.7 NE 17 24 9 13 1018.6 1019.0 0.0
21/01:00am 5.1 -0.1 3.4 89 0.7 NE 20 26 11 14 1018.9 1019.3 0.0
21/12:30am 5.2 0.3 3.9 91 0.6 NE 19 26 10 14 1019.3 1019.6 0.0
21/12:00am 4.9 0.4 4.0 94 0.4 NE 17 22 9 12 1019.5 1019.8 0.0
 
Date/Time
CST
Temp
°C
App
Temp
°C
Dew
Point
°C
Rel
Hum
%
Delta-T
°C
Wind Press
QNH
hPa
Press
MSL
hPa
Rain since
9am
mm
Dir  Spd
km/h
Gust
km/h
Spd
kts
Gust
kts
20/11:30pm 5.3 0.4 4.3 93 0.4 ENE 19 26 10 14 1019.7 1020.0 0.0
20/11:00pm 5.3 0.5 4.4 94 0.4 NE 19 26 10 14 1019.8 1020.1 0.0
20/10:30pm 5.4 0.9 4.4 93 0.4 NE 17 20 9 11 1019.8 1020.1 0.0
20/10:00pm 5.5 1.0 4.3 92 0.5 NE 17 20 9 11 1019.9 1020.2 0.0
20/09:30pm 5.6 1.5 4.2 91 0.6 ENE 15 20 8 11 1020.0 1020.3 0.0
20/09:00pm 6.3 2.6 4.5 88 0.8 ENE 13 17 7 9 1020.1 1020.4 0.0
20/08:30pm 6.6 2.2 4.6 87 0.9 E 17 22 9 12 1020.3 1020.6 0.0
20/08:00pm 6.4 2.3 4.6 88 0.8 E 15 19 8 10 1020.4 1020.7 0.0
20/07:30pm 6.6 2.6 4.8 88 0.8 E 15 17 8 9 1020.3 1020.6 0.0
20/07:00pm 7.1 4.3 5.1 87 0.9 ENE 9 13 5 7 1020.1 1020.4 0.0
20/06:30pm 7.2 4.4 5.3 88 0.9 NE 9 11 5 6 1020.2 1020.5 0.0
20/06:00pm 7.6 5.2 5.2 85 1.1 ENE 7 11 4 6 1020.1 1020.4 0.0
20/05:30pm 8.5 7.1 5.6 82 1.3 SE 2 7 1 4 1020.0 1020.3 0.0
20/05:00pm 9.2 6.9 5.6 78 1.7 ESE 7 11 4 6 1019.8 1020.1 0.0
20/04:30pm 9.6 5.8 5.8 77 1.8 E 15 19 8 10 1019.4 1019.7 0.0
20/04:00pm 10.4 7.8 6.0 74 2.1 ESE 9 13 5 7 1019.5 1019.8 0.0
20/03:30pm 11.3 10.0 5.8 69 2.6 SE 2 7 1 4 1019.9 1020.2 0.0
20/03:00pm 11.4 9.6 5.5 67 2.8 E 4 9 2 5 1020.0 1020.3 0.0
20/02:30pm 11.0 8.6 5.3 68 2.7 ESE 7 11 4 6 1020.0 1020.3 0.0
20/02:00pm 11.0 8.6 5.1 67 2.7 E 7 11 4 6 1020.1 1020.4 0.0
20/01:30pm 10.8 7.5 4.7 66 2.8 E 11 17 6 9 1020.4 1020.7 0.0
20/01:00pm 10.7 8.2 4.8 67 2.7 ESE 7 13 4 7 1020.9 1021.3 0.0
20/12:30pm 9.9 7.4 4.9 71 2.3 WNW 7 9 4 5 1021.5 1021.9 0.0
20/12:00pm 9.8 8.0 5.2 73 2.1 SSW 4 9 2 5 1022.3 1022.6 0.0
20/11:30am 9.5 7.5 4.5 71 2.3 W 4 9 2 5 1022.6 1022.9 0.0
20/11:00am 9.1 6.8 4.7 74 2.0 SE 6 9 3 5 1023.0 1023.3 0.0
20/10:30am 9.2 7.2 4.6 73 2.1 WSW 4 9 2 5 1023.2 1023.6 0.0
20/10:00am 9.0 7.2 5.4 78 1.7 NW 4 7 2 4 1023.2 1023.6 0.0
20/09:30am 8.2 7.2 5.5 83 1.2 CALM 0 0 0 0 1023.0 1023.3 0.0
20/09:00am 7.4 6.3 5.0 85 1.1 CALM 0 0 0 0 1022.9 1023.2 0.2
20/08:30am 6.7 5.5 4.5 86 1.0 CALM 0 0 0 0 1022.9 1023.2 0.2
20/08:00am 6.6 5.0 4.3 85 1.0 SSW 2 9 1 5 1022.6 1022.9 0.2
20/07:30am 6.4 3.9 3.9 84 1.1 SSW 6 9 3 5 1022.5 1022.8 0.2
20/07:00am 6.2 3.7 3.7 84 1.1 SSW 6 9 3 5 1022.5 1022.8 0.2
20/06:30am 6.1 3.4 3.8 85 1.0 SSW 7 11 4 6 1022.3 1022.6 0.2
20/06:00am 5.7 3.0 3.5 86 0.9 SSW 7 9 4 5 1022.3 1022.6 0.2
20/05:30am 5.6 2.4 3.3 85 1.0 SSW 9 13 5 7 1022.1 1022.4 0.2
20/05:00am 5.5 2.3 3.3 86 0.9 SW 9 13 5 7 1022.1 1022.4 0.2
20/04:30am 5.1 1.9 3.0 86 0.9 SSW 9 13 5 7 1022.0 1022.3 0.2
20/04:00am 5.1 2.3 3.1 87 0.8 S 7 9 4 5 1022.1 1022.4 0.2
20/03:30am 4.8 1.2 2.8 87 0.8 S 11 15 6 8 1022.1 1022.4 0.2
20/03:00am 4.8 1.5 2.7 86 0.9 SW 9 11 5 6 1022.0 1022.3 0.2
20/02:30am 4.9 1.6 2.6 85 1.0 WSW 9 13 5 7 1022.2 1022.5 0.2
20/02:00am 4.9 1.6 2.6 85 1.0 WSW 9 11 5 6 1022.2 1022.5 0.2
20/01:30am 5.4 2.2 2.8 83 1.1 W 9 11 5 6 1022.2 1022.5 0.2
20/01:00am 5.3 2.4 2.7 83 1.1 WSW 7 9 4 5 1022.3 1022.6 0.2
20/12:30am 5.9 2.7 2.9 81 1.3 WSW 9 11 5 6 1022.6 1022.9 0.2
20/12:00am 6.0 3.1 2.8 80 1.3 WSW 7 9 4 5 1022.7 1023.0 0.2
 
Date/Time
CST
Temp
°C
App
Temp
°C
Dew
Point
°C
Rel
Hum
%
Delta-T
°C
Wind Press
QNH
hPa
Press
MSL
hPa
Rain since
9am
mm
Dir  Spd
km/h
Gust
km/h
Spd
kts
Gust
kts
19/11:30pm 6.0 2.8 2.8 80 1.3 SW 9 11 5 6 1023.0 1023.3 0.2
19/11:00pm 6.5 3.7 3.1 79 1.5 SW 7 9 4 5 1023.2 1023.6 0.2
19/10:30pm 7.2 4.1 3.6 78 1.6 SSW 9 15 5 8 1023.3 1023.7 0.2
19/10:00pm 6.9 3.8 3.7 80 1.4 SW 9 11 5 6 1023.5 1023.9 0.2
19/09:30pm 7.4 4.7 3.8 78 1.6 SSW 7 9 4 5 1023.6 1024.0 0.2
19/09:00pm 7.6 4.2 4.2 79 1.5 SSW 11 13 6 7 1023.8 1024.2 0.2
19/08:30pm 7.3 4.7 4.4 82 1.3 SSW 7 9 4 5 1023.9 1024.3 0.2
19/08:00pm 7.9 5.1 5.2 83 1.2 SW 9 15 5 8 1023.9 1024.3 0.2
19/07:30pm 8.0 5.6 5.1 82 1.3 WSW 7 9 4 5 1023.7 1024.1 0.2
19/07:00pm 8.0 5.8 5.1 82 1.3 SW 6 9 3 5 1023.5 1023.9 0.2
19/06:30pm 7.9 5.4 4.8 81 1.4 SW 7 9 4 5 1023.0 1023.3 0.2
19/06:00pm 8.3 5.9 4.5 77 1.7 WSW 6 9 3 5 1022.7 1023.0 0.2
19/05:30pm 8.4 5.8 4.2 75 1.9 SSW 7 9 4 5 1022.4 1022.7 0.2
19/05:00pm 8.7 5.7 4.3 74 2.0 SSW 9 13 5 7 1022.3 1022.6 0.2
19/04:30pm 9.0 6.1 4.4 73 2.1 SSW 9 17 5 9 1022.3 1022.6 0.2
19/04:00pm 9.1 6.2 4.5 73 2.1 S 9 17 5 9 1022.4 1022.7 0.2
19/03:30pm 9.1 5.3 3.7 69 2.4 SSW 13 17 7 9 1022.6 1022.9 0.2
19/03:00pm 9.5 5.4 4.1 69 2.4 SSW 15 22 8 12 1022.4 1022.7 0.2

Latest Capital City Observations: Canberra | Sydney | Melbourne | Brisbane | Adelaide | Perth | Hobart | Darwin

Other Formats:

Comma delimited format used in spreadsheet applications
http://www.bom.gov.au/fwo/IDS60901/IDS60901.94683.axf

JavaScript Object Notation format (JSON) in row-major order
http://www.bom.gov.au/fwo/IDS60901/IDS60901.94683.json